AirNav   Pilot Hours Calculator
 
 1151 users online  

37FA Advent Health Orlando Heliport
Orlando, Florida, USA

GOING TO ORLANDO?


FAA INFORMATION EFFECTIVE 30 JANUARY 2020

Location

FAA Identifier: 37FA
Lat/Long: 28-34-32.0020N 081-22-06.2490W
28-34.533367N 081-22.104150W
28.5755561,-81.3684025
(estimated)
Elevation: 75 ft. / 23 m (estimated)
Variation: 03W (1985)
Time zone: UTC -5 (UTC -4 during Daylight Saving Time)
Zip code: 32803

Heliport Operations

Heliport use: Private use, MEDICAL.
Activation date: 03/1969
Control tower: no
ARTCC: JACKSONVILLE CENTER
FSS: SAINT PETERSBURG FLIGHT SERVICE STATION
Attendance: CONTINUOUS
Wind indicator: yes
Segmented circle: no
Lights: FOR PERIMETER LGTS CALL 305-896-6611.
Beacon: white-green-yellow (heliport)
Operates sunset to sunrise.

Heliport Communications

UNICOM: 123.05
WX ASOS at ORL (2.6 nm SE): PHONE 407-658-6753
WX ASOS at MCO (9 nm S): PHONE 407-855-5235
WX ASOS at SFB (14 nm NE): PHONE 407-321-9384
WX AWOS-3PT at ISM (18 nm S): 128.775 (407-847-0533)

Nearby radio navigation aids

VOR radial/distance  VOR name  Freq  Var
ORLr318/2.6ORLANDO VORTAC112.2000E

Heliport Services

Airframe service: NONE
Powerplant service: NONE

Runway Information

Helipad H1

Dimensions: 700 x 50 ft. / 213 x 15 m
Surface: concrete, in fair condition
Runway edge lights: PERI
Operational restrictions: ORIENTED N-S.
Latitude: 28-34.533367N
Longitude: 081-22.104150W
Elevation: 75.0 ft.
Traffic pattern: leftleft
Markings: none, in fair condition

Heliport Ownership and Management from official FAA records

Ownership: Privately-owned
Owner: 1 ADVENTIST HEALTH SYSTEM / SUNBELT
901 NORTH LAKE DESTINY RD STE 375, SUITE 1500
MAITLAND, FL 32751-6135
Phone 407-303-1610
Manager: RICHARD NETTLES
601 E ROLLINS, BOX 161
ORLANDO, FL 32803-6135
Phone (407) 303-5615

Heliport Operational Statistics

Aircraft based on the field: 1
Helicopters: 1
    

Additional Remarks

HELIPORT USED FOR RECEIVING EMERGENCY PATIENTS ONLY.
FOR CD CTC ORLANDO APCH AT 407-852-7553.

Instrument Procedures

There are no published instrument procedures at 37FA.

Some nearby airports with instrument procedures:

KORL - Executive Airport (3 nm SE)
KMCO - Orlando International Airport (9 nm S)
X04 - Orlando Apopka Airport (14 nm NW)
KSFB - Orlando Sanford International Airport (14 nm NE)
KISM - Kissimmee Gateway Airport (18 nm S)
 
Loc | Ops | Rwys | IFR | FBO | Links
Com | Nav | Svcs | Stats | Notes


 
Area around 37FA (Advent Health Orlando Heliport)
 
Road maps at: MapQuest Bing Google
 
Aerial photo
WARNING: Photo may not be current or correct
Aerial photo of 37FA (Advent Health Orlando Heliport)
Photo taken 19-Jan-2005
looking north.

Do you have a better or more recent aerial photo of Advent Health Orlando Heliport that you would like to share? If so, please send us your photo.

 
Sectional chart

 
Airport distance calculator
Flying to Advent Health Orlando Heliport? Find the distance to fly.

From to 37FA

Sunrise and sunset
Times for 26-Feb-2020
 Local
(UTC-5)
 Zulu
(UTC)
Morning civil twilight06:3111:31
Sunrise06:5511:55
Sunset18:2223:22
Evening civil twilight18:4623:46

Current date and time
Zulu (UTC)  26-Feb-2020 13:43:53
Local (UTC-5)  26-Feb-2020 08:43:53
 
METAR
KORL 
2nm SE 
261253Z 18012KT 10SM OVC100 21/15 A2992 RMK AO2 SLP134 T02110150
KMCO 
10nm S 
261253Z 17012KT 10SM BKN085 BKN250 21/16 A2992 RMK AO2 SLP129 T02110156
KSFB 
14nm NE 
261253Z 17008KT 10SM BKN110 21/15 A2990 RMK AO2 SLP124 T02060150
KISM 
18nm S 
261256Z 17006KT 10SM BKN090 20/17 A2994 RMK AO2 SLP137 T02000172 PNO $
TAF
KMCO 
10nm S 
261129Z 2612/2718 19008KT P6SM SCT040 BKN090 OVC120 FM261800 21014G20KT P6SM VCTS BKN040CB OVC060 FM270000 28011KT P6SM SHRA BKN030 OVC060 FM270600 32011KT P6SM SCT030 OVC110
KSFB 
14nm NE 
261129Z 2612/2712 17010KT P6SM SCT040 BKN090 OVC110 FM261900 22013KT P6SM VCTS BKN030CB FM270000 28011KT P6SM SHRA BKN030 OVC060 FM270600 32011KT P6SM SCT030 OVC120
KISM 
18nm S 
261129Z 2612/2712 16008KT P6SM SCT040 OVC090 FM261800 20013KT P6SM VCTS BKN035CB FM270000 28011KT P6SM SHRA BKN030 OVC060 FM270600 32011KT P6SM SCT030 OVC110
NOTAMs
Click for the latest NOTAMs
NOTAMs are issued by the DoD/FAA and will open in a separate window not controlled by AirNav.

 

 
 

Would you like to see your business listed on this page?

 If your business provides an interesting product or service to pilots, flight crews, aircraft, or users of the Advent Health Orlando Heliport, you should consider listing it here.  To start the listing process, click on the button below
 
Add a business
 

Other Pages about Advent Health Orlando Heliport

Update a link
 
Copyright © AirNav, LLC. All rights reserved. Privacy Policy  Contact